sensor_id;sensor_type;location;lat;lon;timestamp;P1;durP1;ratioP1;P2;durP2;ratioP2
58015;SDS011;43809;52.110;20.964;2022-09-03T00:00:13;1.77;;;1.30;;
58015;SDS011;43809;52.110;20.964;2022-09-03T00:02:15;2.22;;;1.40;;
58015;SDS011;43809;52.110;20.964;2022-09-03T00:04:21;2.03;;;1.30;;
58015;SDS011;43809;52.110;20.964;2022-09-03T00:06:25;1.67;;;1.13;;
58015;SDS011;43809;52.110;20.964;2022-09-03T00:08:29;2.10;;;1.20;;
58015;SDS011;43809;52.110;20.964;2022-09-03T00:12:32;1.13;;;1.00;;
58015;SDS011;43809;52.110;20.964;2022-09-03T00:17:14;2.08;;;1.30;;
58015;SDS011;43809;52.110;20.964;2022-09-03T00:19:17;2.38;;;1.50;;
58015;SDS011;43809;52.110;20.964;2022-09-03T00:23:37;3.00;;;1.60;;
58015;SDS011;43809;52.110;20.964;2022-09-03T00:26:24;1.75;;;1.33;;
58015;SDS011;43809;52.110;20.964;2022-09-03T00:28:04;1.52;;;1.15;;
58015;SDS011;43809;52.110;20.964;2022-09-03T00:30:13;1.70;;;1.10;;
58015;SDS011;43809;52.110;20.964;2022-09-03T00:32:36;1.60;;;1.15;;
58015;SDS011;43809;52.110;20.964;2022-09-03T00:34:38;3.03;;;1.30;;
58015;SDS011;43809;52.110;20.964;2022-09-03T00:36:41;1.08;;;0.90;;
58015;SDS011;43809;52.110;20.964;2022-09-03T00:38:41;1.33;;;0.90;;
58015;SDS011;43809;52.110;20.964;2022-09-03T00:42:46;1.65;;;1.00;;
58015;SDS011;43809;52.110;20.964;2022-09-03T00:44:58;1.85;;;0.90;;
58015;SDS011;43809;52.110;20.964;2022-09-03T00:51:26;0.95;;;0.80;;
58015;SDS011;43809;52.110;20.964;2022-09-03T00:55:36;1.67;;;0.70;;
58015;SDS011;43809;52.110;20.964;2022-09-03T00:58:00;0.80;;;0.60;;
58015;SDS011;43809;52.110;20.964;2022-09-03T01:00:13;1.23;;;0.80;;
58015;SDS011;43809;52.110;20.964;2022-09-03T01:04:56;1.67;;;0.85;;
58015;SDS011;43809;52.110;20.964;2022-09-03T01:09:19;1.08;;;0.60;;
58015;SDS011;43809;52.110;20.964;2022-09-03T01:13:43;1.70;;;0.90;;
58015;SDS011;43809;52.110;20.964;2022-09-03T01:15:58;1.13;;;0.90;;
58015;SDS011;43809;52.110;20.964;2022-09-03T01:18:05;1.88;;;1.08;;
58015;SDS011;43809;52.110;20.964;2022-09-03T01:20:30;1.05;;;0.93;;
58015;SDS011;43809;52.110;20.964;2022-09-03T01:24:38;1.65;;;1.30;;
58015;SDS011;43809;52.110;20.964;2022-09-03T01:27:00;1.92;;;1.30;;
58015;SDS011;43809;52.110;20.964;2022-09-03T01:29:09;1.50;;;1.20;;
58015;SDS011;43809;52.110;20.964;2022-09-03T01:33:39;2.85;;;1.65;;
58015;SDS011;43809;52.110;20.964;2022-09-03T01:41:56;3.35;;;1.73;;
58015;SDS011;43809;52.110;20.964;2022-09-03T01:46:22;3.10;;;1.77;;
58015;SDS011;43809;52.110;20.964;2022-09-03T01:53:09;2.38;;;1.50;;
58015;SDS011;43809;52.110;20.964;2022-09-03T01:57:44;3.35;;;1.55;;
58015;SDS011;43809;52.110;20.964;2022-09-03T01:59:46;2.40;;;1.40;;
58015;SDS011;43809;52.110;20.964;2022-09-03T02:02:22;3.97;;;1.85;;
58015;SDS011;43809;52.110;20.964;2022-09-03T02:04:19;4.60;;;2.28;;
58015;SDS011;43809;52.110;20.964;2022-09-03T02:06:22;3.47;;;2.50;;
58015;SDS011;43809;52.110;20.964;2022-09-03T02:08:24;3.77;;;1.83;;
58015;SDS011;43809;52.110;20.964;2022-09-03T02:10:25;4.43;;;2.33;;
58015;SDS011;43809;52.110;20.964;2022-09-03T02:12:29;2.40;;;1.67;;
58015;SDS011;43809;52.110;20.964;2022-09-03T02:14:32;2.97;;;1.73;;
58015;SDS011;43809;52.110;20.964;2022-09-03T02:16:32;3.15;;;1.63;;
58015;SDS011;43809;52.110;20.964;2022-09-03T02:18:39;2.28;;;1.35;;
58015;SDS011;43809;52.110;20.964;2022-09-03T02:20:40;3.15;;;1.90;;
58015;SDS011;43809;52.110;20.964;2022-09-03T02:22:41;2.67;;;1.67;;
58015;SDS011;43809;52.110;20.964;2022-09-03T02:24:42;2.60;;;1.65;;
58015;SDS011;43809;52.110;20.964;2022-09-03T02:26:43;3.70;;;1.98;;
58015;SDS011;43809;52.110;20.964;2022-09-03T02:28:43;3.78;;;1.33;;
58015;SDS011;43809;52.110;20.964;2022-09-03T02:30:43;2.88;;;1.25;;
58015;SDS011;43809;52.110;20.964;2022-09-03T02:32:44;2.15;;;1.20;;
58015;SDS011;43809;52.110;20.964;2022-09-03T02:34:46;2.92;;;1.70;;
58015;SDS011;43809;52.110;20.964;2022-09-03T02:36:46;2.60;;;1.75;;
58015;SDS011;43809;52.110;20.964;2022-09-03T02:38:46;3.20;;;1.90;;
58015;SDS011;43809;52.110;20.964;2022-09-03T02:40:47;2.43;;;1.50;;
58015;SDS011;43809;52.110;20.964;2022-09-03T02:42:47;1.52;;;1.38;;
58015;SDS011;43809;52.110;20.964;2022-09-03T02:44:51;1.58;;;1.20;;
58015;SDS011;43809;52.110;20.964;2022-09-03T02:46:58;3.17;;;1.33;;
58015;SDS011;43809;52.110;20.964;2022-09-03T02:48:59;2.35;;;1.38;;
58015;SDS011;43809;52.110;20.964;2022-09-03T02:51:02;3.38;;;1.75;;
58015;SDS011;43809;52.110;20.964;2022-09-03T02:53:02;1.90;;;1.30;;
58015;SDS011;43809;52.110;20.964;2022-09-03T02:55:02;2.40;;;1.60;;
58015;SDS011;43809;52.110;20.964;2022-09-03T02:57:03;2.40;;;1.20;;
58015;SDS011;43809;52.110;20.964;2022-09-03T02:59:17;1.63;;;1.40;;
58015;SDS011;43809;52.110;20.964;2022-09-03T03:01:17;2.15;;;1.20;;
58015;SDS011;43809;52.110;20.964;2022-09-03T03:03:17;1.27;;;1.00;;
58015;SDS011;43809;52.110;20.964;2022-09-03T03:05:20;1.75;;;0.90;;
58015;SDS011;43809;52.110;20.964;2022-09-03T03:07:23;1.42;;;1.00;;
58015;SDS011;43809;52.110;20.964;2022-09-03T03:09:25;0.90;;;0.73;;
58015;SDS011;43809;52.110;20.964;2022-09-03T03:11:25;1.40;;;0.85;;
58015;SDS011;43809;52.110;20.964;2022-09-03T03:13:26;1.23;;;0.90;;
58015;SDS011;43809;52.110;20.964;2022-09-03T03:15:27;1.55;;;0.90;;
58015;SDS011;43809;52.110;20.964;2022-09-03T03:17:27;1.57;;;0.90;;
58015;SDS011;43809;52.110;20.964;2022-09-03T03:19:29;1.88;;;0.95;;
58015;SDS011;43809;52.110;20.964;2022-09-03T03:21:30;2.92;;;1.10;;
58015;SDS011;43809;52.110;20.964;2022-09-03T03:23:30;5.57;;;1.30;;
58015;SDS011;43809;52.110;20.964;2022-09-03T03:25:31;2.35;;;1.33;;
58015;SDS011;43809;52.110;20.964;2022-09-03T03:27:31;2.65;;;1.52;;
58015;SDS011;43809;52.110;20.964;2022-09-03T03:29:32;6.00;;;1.60;;
58015;SDS011;43809;52.110;20.964;2022-09-03T03:31:33;4.25;;;1.60;;
58015;SDS011;43809;52.110;20.964;2022-09-03T03:33:34;3.17;;;1.90;;
58015;SDS011;43809;52.110;20.964;2022-09-03T03:35:35;4.50;;;2.27;;
58015;SDS011;43809;52.110;20.964;2022-09-03T03:37:35;6.80;;;2.55;;
58015;SDS011;43809;52.110;20.964;2022-09-03T03:39:36;4.97;;;1.92;;
58015;SDS011;43809;52.110;20.964;2022-09-03T03:41:39;2.38;;;1.27;;
58015;SDS011;43809;52.110;20.964;2022-09-03T03:43:39;2.60;;;1.10;;
58015;SDS011;43809;52.110;20.964;2022-09-03T03:45:40;4.45;;;1.85;;
58015;SDS011;43809;52.110;20.964;2022-09-03T03:47:40;4.73;;;1.90;;
58015;SDS011;43809;52.110;20.964;2022-09-03T03:49:40;3.35;;;1.90;;
58015;SDS011;43809;52.110;20.964;2022-09-03T03:54:12;2.83;;;1.75;;
58015;SDS011;43809;52.110;20.964;2022-09-03T03:56:13;2.80;;;1.53;;
58015;SDS011;43809;52.110;20.964;2022-09-03T03:58:15;3.25;;;1.70;;
58015;SDS011;43809;52.110;20.964;2022-09-03T04:00:15;2.20;;;1.50;;
58015;SDS011;43809;52.110;20.964;2022-09-03T04:02:15;3.83;;;1.88;;
58015;SDS011;43809;52.110;20.964;2022-09-03T04:04:16;4.00;;;1.70;;
58015;SDS011;43809;52.110;20.964;2022-09-03T04:06:28;1.90;;;1.20;;
58015;SDS011;43809;52.110;20.964;2022-09-03T04:08:28;6.10;;;1.80;;
58015;SDS011;43809;52.110;20.964;2022-09-03T04:10:29;4.60;;;2.20;;
58015;SDS011;43809;52.110;20.964;2022-09-03T04:12:29;2.33;;;1.63;;
58015;SDS011;43809;52.110;20.964;2022-09-03T04:14:29;4.35;;;2.25;;
58015;SDS011;43809;52.110;20.964;2022-09-03T04:16:30;4.00;;;2.22;;
58015;SDS011;43809;52.110;20.964;2022-09-03T04:18:31;3.33;;;2.00;;
58015;SDS011;43809;52.110;20.964;2022-09-03T04:20:34;3.78;;;2.38;;
58015;SDS011;43809;52.110;20.964;2022-09-03T04:22:34;2.90;;;1.70;;
58015;SDS011;43809;52.110;20.964;2022-09-03T04:24:34;3.00;;;1.40;;
58015;SDS011;43809;52.110;20.964;2022-09-03T04:26:48;2.67;;;1.80;;
58015;SDS011;43809;52.110;20.964;2022-09-03T04:28:49;3.55;;;2.08;;
58015;SDS011;43809;52.110;20.964;2022-09-03T04:30:49;3.40;;;2.30;;
58015;SDS011;43809;52.110;20.964;2022-09-03T04:32:49;3.87;;;1.80;;
58015;SDS011;43809;52.110;20.964;2022-09-03T04:34:52;2.28;;;1.65;;
58015;SDS011;43809;52.110;20.964;2022-09-03T04:36:52;1.98;;;1.48;;
58015;SDS011;43809;52.110;20.964;2022-09-03T04:38:53;2.13;;;1.50;;
58015;SDS011;43809;52.110;20.964;2022-09-03T04:40:54;2.00;;;1.50;;
58015;SDS011;43809;52.110;20.964;2022-09-03T04:42:57;2.87;;;1.50;;
58015;SDS011;43809;52.110;20.964;2022-09-03T04:44:58;2.25;;;1.60;;
58015;SDS011;43809;52.110;20.964;2022-09-03T04:46:58;1.87;;;1.43;;
58015;SDS011;43809;52.110;20.964;2022-09-03T04:48:58;2.90;;;1.60;;
58015;SDS011;43809;52.110;20.964;2022-09-03T04:51:02;2.40;;;1.27;;
58015;SDS011;43809;52.110;20.964;2022-09-03T04:53:05;1.60;;;1.35;;
58015;SDS011;43809;52.110;20.964;2022-09-03T04:55:06;2.20;;;1.40;;
58015;SDS011;43809;52.110;20.964;2022-09-03T04:57:06;3.08;;;1.52;;
58015;SDS011;43809;52.110;20.964;2022-09-03T04:59:07;3.60;;;1.70;;
58015;SDS011;43809;52.110;20.964;2022-09-03T05:01:14;2.25;;;1.45;;
58015;SDS011;43809;52.110;20.964;2022-09-03T05:03:21;3.00;;;1.80;;
58015;SDS011;43809;52.110;20.964;2022-09-03T05:05:22;2.53;;;1.38;;
58015;SDS011;43809;52.110;20.964;2022-09-03T05:07:22;1.75;;;1.40;;
58015;SDS011;43809;52.110;20.964;2022-09-03T05:09:22;3.60;;;1.85;;
58015;SDS011;43809;52.110;20.964;2022-09-03T05:11:23;2.28;;;1.63;;
58015;SDS011;43809;52.110;20.964;2022-09-03T05:13:23;2.63;;;1.83;;
58015;SDS011;43809;52.110;20.964;2022-09-03T05:15:24;3.23;;;1.70;;
58015;SDS011;43809;52.110;20.964;2022-09-03T05:17:24;3.10;;;1.80;;
58015;SDS011;43809;52.110;20.964;2022-09-03T05:19:24;3.70;;;1.98;;
58015;SDS011;43809;52.110;20.964;2022-09-03T05:21:24;5.65;;;2.10;;
58015;SDS011;43809;52.110;20.964;2022-09-03T05:23:25;2.90;;;1.70;;
58015;SDS011;43809;52.110;20.964;2022-09-03T05:25:25;3.05;;;2.10;;
58015;SDS011;43809;52.110;20.964;2022-09-03T05:27:26;3.15;;;2.10;;
58015;SDS011;43809;52.110;20.964;2022-09-03T05:29:26;6.40;;;2.50;;
58015;SDS011;43809;52.110;20.964;2022-09-03T05:31:27;3.15;;;1.95;;
58015;SDS011;43809;52.110;20.964;2022-09-03T05:33:28;2.53;;;1.95;;
58015;SDS011;43809;52.110;20.964;2022-09-03T05:35:29;4.30;;;2.10;;
58015;SDS011;43809;52.110;20.964;2022-09-03T05:37:29;2.75;;;1.95;;
58015;SDS011;43809;52.110;20.964;2022-09-03T05:39:29;3.23;;;2.00;;
58015;SDS011;43809;52.110;20.964;2022-09-03T05:41:30;3.87;;;1.90;;
58015;SDS011;43809;52.110;20.964;2022-09-03T05:43:35;2.30;;;1.73;;
58015;SDS011;43809;52.110;20.964;2022-09-03T05:45:35;2.63;;;2.00;;
58015;SDS011;43809;52.110;20.964;2022-09-03T05:47:36;3.67;;;2.10;;
58015;SDS011;43809;52.110;20.964;2022-09-03T05:49:38;2.90;;;1.73;;
58015;SDS011;43809;52.110;20.964;2022-09-03T05:51:39;3.17;;;1.60;;
58015;SDS011;43809;52.110;20.964;2022-09-03T05:53:39;2.50;;;1.80;;
58015;SDS011;43809;52.110;20.964;2022-09-03T05:55:39;3.63;;;2.30;;
58015;SDS011;43809;52.110;20.964;2022-09-03T05:57:39;2.40;;;1.77;;
58015;SDS011;43809;52.110;20.964;2022-09-03T05:59:40;4.07;;;1.98;;
58015;SDS011;43809;52.110;20.964;2022-09-03T06:01:41;2.27;;;1.83;;
58015;SDS011;43809;52.110;20.964;2022-09-03T06:03:42;4.10;;;1.90;;
58015;SDS011;43809;52.110;20.964;2022-09-03T06:08:06;2.47;;;1.80;;
58015;SDS011;43809;52.110;20.964;2022-09-03T06:23:41;2.33;;;1.70;;
58015;SDS011;43809;52.110;20.964;2022-09-03T06:28:04;2.50;;;1.85;;
58015;SDS011;43809;52.110;20.964;2022-09-03T06:30:08;2.30;;;1.60;;
58015;SDS011;43809;52.110;20.964;2022-09-03T06:32:08;2.85;;;1.88;;
58015;SDS011;43809;52.110;20.964;2022-09-03T06:34:08;2.13;;;1.53;;
58015;SDS011;43809;52.110;20.964;2022-09-03T06:36:09;2.00;;;1.53;;
58015;SDS011;43809;52.110;20.964;2022-09-03T06:38:10;2.03;;;1.40;;
58015;SDS011;43809;52.110;20.964;2022-09-03T06:40:11;2.30;;;1.30;;
58015;SDS011;43809;52.110;20.964;2022-09-03T06:42:12;1.83;;;1.40;;
58015;SDS011;43809;52.110;20.964;2022-09-03T06:44:13;1.53;;;1.40;;
58015;SDS011;43809;52.110;20.964;2022-09-03T06:46:15;2.15;;;1.55;;
58015;SDS011;43809;52.110;20.964;2022-09-03T06:48:15;1.95;;;1.40;;
58015;SDS011;43809;52.110;20.964;2022-09-03T06:50:16;2.30;;;1.70;;
58015;SDS011;43809;52.110;20.964;2022-09-03T06:54:30;2.10;;;1.65;;
58015;SDS011;43809;52.110;20.964;2022-09-03T06:56:31;2.27;;;1.50;;
58015;SDS011;43809;52.110;20.964;2022-09-03T07:01:14;2.03;;;1.45;;
58015;SDS011;43809;52.110;20.964;2022-09-03T07:03:14;2.30;;;1.30;;
58015;SDS011;43809;52.110;20.964;2022-09-03T07:07:16;1.10;;;0.95;;
58015;SDS011;43809;52.110;20.964;2022-09-03T07:09:17;1.90;;;1.20;;
58015;SDS011;43809;52.110;20.964;2022-09-03T07:11:32;2.33;;;1.20;;
58015;SDS011;43809;52.110;20.964;2022-09-03T07:13:35;1.90;;;1.40;;
58015;SDS011;43809;52.110;20.964;2022-09-03T07:15:35;2.30;;;1.65;;
58015;SDS011;43809;52.110;20.964;2022-09-03T07:19:58;3.20;;;1.33;;
58015;SDS011;43809;52.110;20.964;2022-09-03T07:21:59;1.92;;;1.60;;
58015;SDS011;43809;52.110;20.964;2022-09-03T07:23:59;2.22;;;1.40;;
58015;SDS011;43809;52.110;20.964;2022-09-03T07:26:01;1.33;;;1.17;;
58015;SDS011;43809;52.110;20.964;2022-09-03T07:28:04;1.60;;;1.20;;
58015;SDS011;43809;52.110;20.964;2022-09-03T07:30:05;2.15;;;1.00;;
58015;SDS011;43809;52.110;20.964;2022-09-03T07:32:08;3.08;;;1.27;;
58015;SDS011;43809;52.110;20.964;2022-09-03T07:41:50;2.03;;;1.00;;
58015;SDS011;43809;52.110;20.964;2022-09-03T07:43:50;3.10;;;1.40;;
58015;SDS011;43809;52.110;20.964;2022-09-03T07:45:50;2.40;;;1.40;;
58015;SDS011;43809;52.110;20.964;2022-09-03T07:47:50;1.48;;;1.20;;
58015;SDS011;43809;52.110;20.964;2022-09-03T07:49:51;1.53;;;1.20;;
58015;SDS011;43809;52.110;20.964;2022-09-03T07:52:08;1.30;;;1.15;;
58015;SDS011;43809;52.110;20.964;2022-09-03T07:54:09;1.70;;;1.00;;
58015;SDS011;43809;52.110;20.964;2022-09-03T07:56:10;1.67;;;1.10;;
58015;SDS011;43809;52.110;20.964;2022-09-03T07:58:10;1.10;;;1.00;;
58015;SDS011;43809;52.110;20.964;2022-09-03T08:00:11;1.88;;;1.27;;
58015;SDS011;43809;52.110;20.964;2022-09-03T08:02:12;1.15;;;0.98;;
58015;SDS011;43809;52.110;20.964;2022-09-03T08:04:15;1.50;;;1.10;;
58015;SDS011;43809;52.110;20.964;2022-09-03T08:06:17;1.33;;;1.08;;
58015;SDS011;43809;52.110;20.964;2022-09-03T08:10:18;1.75;;;1.20;;
58015;SDS011;43809;52.110;20.964;2022-09-03T08:12:18;1.77;;;1.10;;
58015;SDS011;43809;52.110;20.964;2022-09-03T08:14:18;3.37;;;1.60;;
58015;SDS011;43809;52.110;20.964;2022-09-03T08:16:18;1.45;;;1.30;;
58015;SDS011;43809;52.110;20.964;2022-09-03T08:20:50;2.28;;;1.30;;
58015;SDS011;43809;52.110;20.964;2022-09-03T08:22:50;1.57;;;1.10;;
58015;SDS011;43809;52.110;20.964;2022-09-03T08:24:51;1.50;;;1.10;;
58015;SDS011;43809;52.110;20.964;2022-09-03T08:26:53;1.25;;;1.15;;
58015;SDS011;43809;52.110;20.964;2022-09-03T08:28:53;2.88;;;1.20;;
58015;SDS011;43809;52.110;20.964;2022-09-03T08:33:31;2.75;;;1.25;;
58015;SDS011;43809;52.110;20.964;2022-09-03T08:35:38;1.95;;;1.10;;
58015;SDS011;43809;52.110;20.964;2022-09-03T08:37:38;1.98;;;1.08;;
58015;SDS011;43809;52.110;20.964;2022-09-03T08:39:38;1.80;;;1.30;;
58015;SDS011;43809;52.110;20.964;2022-09-03T08:48:54;2.13;;;1.17;;
58015;SDS011;43809;52.110;20.964;2022-09-03T08:50:55;2.13;;;1.05;;
58015;SDS011;43809;52.110;20.964;2022-09-03T08:53:19;1.02;;;0.90;;
58015;SDS011;43809;52.110;20.964;2022-09-03T08:55:22;1.85;;;0.93;;
58015;SDS011;43809;52.110;20.964;2022-09-03T08:57:24;2.25;;;1.40;;
58015;SDS011;43809;52.110;20.964;2022-09-03T08:59:24;1.77;;;1.30;;
58015;SDS011;43809;52.110;20.964;2022-09-03T09:01:29;3.37;;;1.30;;
58015;SDS011;43809;52.110;20.964;2022-09-03T09:03:53;3.67;;;1.30;;
58015;SDS011;43809;52.110;20.964;2022-09-03T09:08:19;3.60;;;1.30;;
58015;SDS011;43809;52.110;20.964;2022-09-03T09:10:25;2.53;;;1.02;;
58015;SDS011;43809;52.110;20.964;2022-09-03T09:22:53;2.83;;;1.23;;
58015;SDS011;43809;52.110;20.964;2022-09-03T09:24:55;1.65;;;1.30;;
58015;SDS011;43809;52.110;20.964;2022-09-03T09:26:59;2.15;;;1.10;;
58015;SDS011;43809;52.110;20.964;2022-09-03T09:29:07;1.35;;;1.00;;
58015;SDS011;43809;52.110;20.964;2022-09-03T09:31:10;1.33;;;1.10;;
58015;SDS011;43809;52.110;20.964;2022-09-03T09:33:14;1.08;;;0.98;;
58015;SDS011;43809;52.110;20.964;2022-09-03T09:35:15;2.33;;;1.00;;
58015;SDS011;43809;52.110;20.964;2022-09-03T09:37:16;2.87;;;1.20;;
58015;SDS011;43809;52.110;20.964;2022-09-03T09:39:16;3.13;;;1.02;;
58015;SDS011;43809;52.110;20.964;2022-09-03T09:41:18;3.13;;;1.20;;
58015;SDS011;43809;52.110;20.964;2022-09-03T09:43:20;5.17;;;1.40;;
58015;SDS011;43809;52.110;20.964;2022-09-03T09:45:21;1.75;;;1.10;;
58015;SDS011;43809;52.110;20.964;2022-09-03T09:47:28;8.48;;;1.60;;
58015;SDS011;43809;52.110;20.964;2022-09-03T09:49:31;1.58;;;0.85;;
58015;SDS011;43809;52.110;20.964;2022-09-03T09:51:32;2.38;;;1.08;;
58015;SDS011;43809;52.110;20.964;2022-09-03T09:53:32;2.35;;;1.08;;
58015;SDS011;43809;52.110;20.964;2022-09-03T09:55:33;1.67;;;1.10;;
58015;SDS011;43809;52.110;20.964;2022-09-03T09:57:35;2.03;;;1.00;;
58015;SDS011;43809;52.110;20.964;2022-09-03T09:59:37;1.17;;;0.90;;
58015;SDS011;43809;52.110;20.964;2022-09-03T10:01:38;1.08;;;0.80;;
58015;SDS011;43809;52.110;20.964;2022-09-03T10:03:40;1.52;;;1.00;;
58015;SDS011;43809;52.110;20.964;2022-09-03T10:05:56;1.42;;;0.90;;
58015;SDS011;43809;52.110;20.964;2022-09-03T10:08:01;1.02;;;0.70;;
58015;SDS011;43809;52.110;20.964;2022-09-03T10:10:05;1.60;;;0.77;;
58015;SDS011;43809;52.110;20.964;2022-09-03T10:12:23;2.15;;;1.10;;
58015;SDS011;43809;52.110;20.964;2022-09-03T10:14:28;0.98;;;0.90;;
58015;SDS011;43809;52.110;20.964;2022-09-03T10:16:34;1.55;;;1.00;;
58015;SDS011;43809;52.110;20.964;2022-09-03T10:23:16;1.20;;;0.90;;
58015;SDS011;43809;52.110;20.964;2022-09-03T10:25:18;1.48;;;0.93;;
58015;SDS011;43809;52.110;20.964;2022-09-03T10:27:19;3.33;;;1.10;;
58015;SDS011;43809;52.110;20.964;2022-09-03T10:29:22;6.10;;;1.37;;
58015;SDS011;43809;52.110;20.964;2022-09-03T10:34:28;3.50;;;1.00;;
58015;SDS011;43809;52.110;20.964;2022-09-03T10:36:09;1.33;;;0.85;;
58015;SDS011;43809;52.110;20.964;2022-09-03T10:38:17;2.83;;;1.05;;
58015;SDS011;43809;52.110;20.964;2022-09-03T10:49:27;2.03;;;1.05;;
58015;SDS011;43809;52.110;20.964;2022-09-03T10:51:44;2.05;;;0.90;;
58015;SDS011;43809;52.110;20.964;2022-09-03T10:59:59;2.23;;;1.10;;
58015;SDS011;43809;52.110;20.964;2022-09-03T11:04:25;1.83;;;0.73;;
58015;SDS011;43809;52.110;20.964;2022-09-03T11:06:27;1.20;;;0.90;;
58015;SDS011;43809;52.110;20.964;2022-09-03T11:08:29;1.30;;;0.90;;
58015;SDS011;43809;52.110;20.964;2022-09-03T11:10:32;0.82;;;0.60;;
58015;SDS011;43809;52.110;20.964;2022-09-03T11:12:34;3.35;;;1.10;;
58015;SDS011;43809;52.110;20.964;2022-09-03T11:14:40;1.83;;;0.90;;
58015;SDS011;43809;52.110;20.964;2022-09-03T11:16:43;1.23;;;0.90;;
58015;SDS011;43809;52.110;20.964;2022-09-03T11:20:44;1.38;;;0.98;;
58015;SDS011;43809;52.110;20.964;2022-09-03T11:22:47;1.60;;;1.00;;
58015;SDS011;43809;52.110;20.964;2022-09-03T11:24:50;2.35;;;0.95;;
58015;SDS011;43809;52.110;20.964;2022-09-03T11:29:15;1.45;;;0.85;;
58015;SDS011;43809;52.110;20.964;2022-09-03T11:31:21;1.33;;;0.80;;
58015;SDS011;43809;52.110;20.964;2022-09-03T11:33:24;1.20;;;0.70;;
58015;SDS011;43809;52.110;20.964;2022-09-03T11:37:32;0.90;;;0.80;;
58015;SDS011;43809;52.110;20.964;2022-09-03T11:39:44;1.35;;;0.90;;
58015;SDS011;43809;52.110;20.964;2022-09-03T11:43:58;1.55;;;0.80;;
58015;SDS011;43809;52.110;20.964;2022-09-03T11:46:02;1.27;;;1.00;;
58015;SDS011;43809;52.110;20.964;2022-09-03T11:50:39;1.98;;;1.00;;
58015;SDS011;43809;52.110;20.964;2022-09-03T11:52:51;1.02;;;0.70;;
58015;SDS011;43809;52.110;20.964;2022-09-03T11:54:52;1.25;;;0.73;;
58015;SDS011;43809;52.110;20.964;2022-09-03T11:57:06;0.97;;;0.80;;
58015;SDS011;43809;52.110;20.964;2022-09-03T12:01:15;0.77;;;0.55;;
58015;SDS011;43809;52.110;20.964;2022-09-03T12:03:22;1.00;;;0.70;;
58015;SDS011;43809;52.110;20.964;2022-09-03T12:07:53;1.10;;;0.73;;
58015;SDS011;43809;52.110;20.964;2022-09-03T12:10:00;0.95;;;0.63;;
58015;SDS011;43809;52.110;20.964;2022-09-03T12:18:24;1.35;;;0.80;;
58015;SDS011;43809;52.110;20.964;2022-09-03T12:20:26;1.10;;;0.77;;
58015;SDS011;43809;52.110;20.964;2022-09-03T12:22:28;1.13;;;0.70;;
58015;SDS011;43809;52.110;20.964;2022-09-03T12:24:34;1.33;;;0.90;;
58015;SDS011;43809;52.110;20.964;2022-09-03T12:26:40;2.08;;;0.60;;
58015;SDS011;43809;52.110;20.964;2022-09-03T12:28:45;1.15;;;0.80;;
58015;SDS011;43809;52.110;20.964;2022-09-03T12:30:46;1.30;;;0.70;;
58015;SDS011;43809;52.110;20.964;2022-09-03T12:32:46;3.33;;;1.10;;
58015;SDS011;43809;52.110;20.964;2022-09-03T12:34:47;1.58;;;0.90;;
58015;SDS011;43809;52.110;20.964;2022-09-03T12:36:51;2.33;;;0.73;;
58015;SDS011;43809;52.110;20.964;2022-09-03T12:38:51;1.42;;;0.77;;
58015;SDS011;43809;52.110;20.964;2022-09-03T12:40:52;0.85;;;0.68;;
58015;SDS011;43809;52.110;20.964;2022-09-03T12:42:53;1.48;;;0.85;;
58015;SDS011;43809;52.110;20.964;2022-09-03T12:44:54;0.85;;;0.52;;
58015;SDS011;43809;52.110;20.964;2022-09-03T12:47:05;1.27;;;0.90;;
58015;SDS011;43809;52.110;20.964;2022-09-03T12:49:06;4.50;;;0.80;;
58015;SDS011;43809;52.110;20.964;2022-09-03T12:51:06;2.25;;;0.70;;
58015;SDS011;43809;52.110;20.964;2022-09-03T12:53:07;0.90;;;0.80;;
58015;SDS011;43809;52.110;20.964;2022-09-03T12:55:24;2.33;;;1.30;;
58015;SDS011;43809;52.110;20.964;2022-09-03T12:57:27;1.10;;;0.90;;
58015;SDS011;43809;52.110;20.964;2022-09-03T12:59:30;2.42;;;0.70;;
58015;SDS011;43809;52.110;20.964;2022-09-03T13:01:31;2.13;;;0.80;;
58015;SDS011;43809;52.110;20.964;2022-09-03T13:06:00;2.13;;;1.00;;
58015;SDS011;43809;52.110;20.964;2022-09-03T13:08:02;3.72;;;1.10;;
58015;SDS011;43809;52.110;20.964;2022-09-03T13:12:05;2.90;;;1.60;;
58015;SDS011;43809;52.110;20.964;2022-09-03T13:14:07;2.75;;;1.67;;
58015;SDS011;43809;52.110;20.964;2022-09-03T13:16:16;4.00;;;1.70;;
58015;SDS011;43809;52.110;20.964;2022-09-03T13:18:22;2.88;;;0.90;;
58015;SDS011;43809;52.110;20.964;2022-09-03T13:20:28;1.63;;;0.90;;
58015;SDS011;43809;52.110;20.964;2022-09-03T13:27:08;3.83;;;1.23;;
58015;SDS011;43809;52.110;20.964;2022-09-03T13:33:32;1.75;;;1.00;;
58015;SDS011;43809;52.110;20.964;2022-09-03T13:35:41;2.53;;;1.10;;
58015;SDS011;43809;52.110;20.964;2022-09-03T13:38:21;0.93;;;0.80;;
58015;SDS011;43809;52.110;20.964;2022-09-03T13:42:39;0.80;;;0.60;;
58015;SDS011;43809;52.110;20.964;2022-09-03T13:44:44;1.98;;;1.00;;
58015;SDS011;43809;52.110;20.964;2022-09-03T13:46:47;2.40;;;0.90;;
58015;SDS011;43809;52.110;20.964;2022-09-03T13:53:39;1.33;;;0.77;;
58015;SDS011;43809;52.110;20.964;2022-09-03T13:55:46;2.10;;;0.80;;
58015;SDS011;43809;52.110;20.964;2022-09-03T13:57:52;1.88;;;1.10;;
58015;SDS011;43809;52.110;20.964;2022-09-03T14:01:57;5.43;;;1.30;;
58015;SDS011;43809;52.110;20.964;2022-09-03T14:04:00;577.55;;;429.38;;
58015;SDS011;43809;52.110;20.964;2022-09-03T14:06:17;520.08;;;381.67;;
58015;SDS011;43809;52.110;20.964;2022-09-03T14:09:29;294.98;;;245.80;;
58015;SDS011;43809;52.110;20.964;2022-09-03T14:10:58;22.35;;;19.92;;
58015;SDS011;43809;52.110;20.964;2022-09-03T14:21:56;288.58;;;219.02;;
58015;SDS011;43809;52.110;20.964;2022-09-03T14:24:05;353.60;;;287.40;;
58015;SDS011;43809;52.110;20.964;2022-09-03T14:26:06;130.27;;;96.72;;
58015;SDS011;43809;52.110;20.964;2022-09-03T14:28:18;38.92;;;28.35;;
58015;SDS011;43809;52.110;20.964;2022-09-03T14:30:28;191.25;;;126.72;;
58015;SDS011;43809;52.110;20.964;2022-09-03T14:32:31;43.00;;;27.55;;
58015;SDS011;43809;52.110;20.964;2022-09-03T14:36:44;66.57;;;46.30;;
58015;SDS011;43809;52.110;20.964;2022-09-03T14:43:09;225.93;;;202.13;;
58015;SDS011;43809;52.110;20.964;2022-09-03T14:47:29;196.32;;;163.75;;
58015;SDS011;43809;52.110;20.964;2022-09-03T14:51:45;126.22;;;111.22;;
58015;SDS011;43809;52.110;20.964;2022-09-03T14:54:00;97.47;;;86.90;;
58015;SDS011;43809;52.110;20.964;2022-09-03T14:58:17;246.60;;;220.55;;
58015;SDS011;43809;52.110;20.964;2022-09-03T15:00:20;543.00;;;408.60;;
58015;SDS011;43809;52.110;20.964;2022-09-03T15:04:42;293.88;;;262.08;;
58015;SDS011;43809;52.110;20.964;2022-09-03T15:11:19;93.00;;;70.57;;
58015;SDS011;43809;52.110;20.964;2022-09-03T15:15:28;155.38;;;117.68;;
58015;SDS011;43809;52.110;20.964;2022-09-03T15:23:51;19.45;;;15.18;;
58015;SDS011;43809;52.110;20.964;2022-09-03T15:28:17;69.32;;;42.88;;
58015;SDS011;43809;52.110;20.964;2022-09-03T15:30:21;28.15;;;15.02;;
58015;SDS011;43809;52.110;20.964;2022-09-03T15:34:34;48.88;;;26.63;;
58015;SDS011;43809;52.110;20.964;2022-09-03T15:36:39;24.67;;;15.77;;
58015;SDS011;43809;52.110;20.964;2022-09-03T15:38:59;11.75;;;7.03;;
58015;SDS011;43809;52.110;20.964;2022-09-03T15:41:01;7.35;;;4.95;;
58015;SDS011;43809;52.110;20.964;2022-09-03T15:43:07;7.57;;;3.13;;
58015;SDS011;43809;52.110;20.964;2022-09-03T15:45:14;17.15;;;10.40;;
58015;SDS011;43809;52.110;20.964;2022-09-03T15:47:31;6.72;;;3.47;;
58015;SDS011;43809;52.110;20.964;2022-09-03T15:49:45;8.90;;;3.13;;